createdAt,value
2023-01-21T00:01:30.319Z,0.67
2023-01-21T00:04:07.827Z,0.57
2023-01-21T00:06:45.903Z,0.54
2023-01-21T00:09:30.622Z,0.43
2023-01-21T00:12:20.253Z,0.56
2023-01-21T00:14:58.693Z,0.62
2023-01-21T00:17:45.359Z,0.58
2023-01-21T00:20:26.524Z,0.55
2023-01-21T00:23:01.619Z,0.55
2023-01-21T00:25:56.166Z,0.61
2023-01-21T00:28:46.835Z,0.60
2023-01-21T00:31:21.856Z,0.61
2023-01-21T00:34:05.378Z,0.65
2023-01-21T00:36:41.464Z,0.53
2023-01-21T00:39:28.115Z,0.57
2023-01-21T00:42:06.553Z,0.62
2023-01-21T00:44:51.982Z,0.70
2023-01-21T00:47:45.223Z,0.69
2023-01-21T00:50:23.610Z,0.56
2023-01-21T00:53:07.469Z,0.58
2023-01-21T00:55:44.977Z,0.70
2023-01-21T00:58:23.375Z,0.57
2023-01-21T01:01:18.325Z,0.62
2023-01-21T01:03:58.671Z,0.56
2023-01-21T01:06:39.275Z,0.48
2023-01-21T01:09:26.997Z,0.55
2023-01-21T01:12:04.811Z,0.40
2023-01-21T01:14:45.735Z,0.46
2023-01-21T01:17:26.155Z,0.58
2023-01-21T01:20:02.080Z,0.49
2023-01-21T01:22:41.931Z,0.62
2023-01-21T01:25:33.096Z,0.59
2023-01-21T01:28:19.669Z,0.60
2023-01-21T01:30:56.013Z,0.63
2023-01-21T01:33:39.221Z,0.52
2023-01-21T01:36:16.542Z,0.56
2023-01-21T01:38:52.450Z,0.62
2023-01-21T01:41:32.242Z,0.59
2023-01-21T01:44:45.431Z,0.56
2023-01-21T01:47:26.107Z,0.57
2023-01-21T01:50:02.642Z,0.64
2023-01-21T01:52:46.247Z,0.53
2023-01-21T01:55:27.293Z,0.57
2023-01-21T01:58:01.240Z,0.50
2023-01-21T02:00:41.885Z,0.52
2023-01-21T02:03:33.657Z,0.48
2023-01-21T02:06:11.829Z,0.43
2023-01-21T02:08:53.033Z,0.51
2023-01-21T02:11:31.003Z,0.50
2023-01-21T02:14:08.975Z,0.51
2023-01-21T02:16:52.754Z,0.61
2023-01-21T02:19:42.487Z,0.62
2023-01-21T02:22:53.007Z,0.60
2023-01-21T02:25:47.701Z,0.83
2023-01-21T02:29:17.343Z,0.70
2023-01-21T02:32:11.286Z,0.69
2023-01-21T02:35:03.050Z,0.83
2023-01-21T02:38:37.580Z,0.71
2023-01-21T02:41:51.632Z,0.68
2023-01-21T02:44:36.818Z,0.73
2023-01-21T02:47:31.231Z,0.73
2023-01-21T02:50:22.151Z,0.72
2023-01-21T02:53:04.880Z,0.77
2023-01-21T02:55:48.595Z,0.74
2023-01-21T02:58:31.560Z,0.74
2023-01-21T03:01:12.955Z,0.80
2023-01-21T03:04:00.290Z,0.76
2023-01-21T03:06:50.354Z,0.75
2023-01-21T03:09:42.350Z,0.78
2023-01-21T03:12:29.994Z,0.75
2023-01-21T03:15:38.706Z,0.85
2023-01-21T03:18:33.024Z,0.65
2023-01-21T03:21:14.662Z,0.78
2023-01-21T03:23:54.090Z,0.83
2023-01-21T03:26:38.759Z,0.71
2023-01-21T03:29:22.629Z,0.74
2023-01-21T03:32:05.245Z,0.70
2023-01-21T03:34:42.100Z,0.81
2023-01-21T03:37:27.585Z,0.83
2023-01-21T03:40:08.474Z,0.77
2023-01-21T03:42:47.204Z,0.85
2023-01-21T03:45:35.386Z,0.91
2023-01-21T03:48:21.730Z,0.90
2023-01-21T03:51:14.164Z,0.84
2023-01-21T03:53:50.402Z,0.80
2023-01-21T03:56:33.050Z,0.86
2023-01-21T03:59:14.451Z,1.02
2023-01-21T04:01:55.639Z,1.00
2023-01-21T04:04:35.693Z,0.97
2023-01-21T04:07:13.529Z,0.89
2023-01-21T04:09:50.193Z,0.93
2023-01-21T04:12:41.092Z,0.97
2023-01-21T04:15:14.556Z,0.92
2023-01-21T04:17:46.232Z,0.96
2023-01-21T04:20:22.596Z,0.92
2023-01-21T04:23:00.435Z,0.96
2023-01-21T04:25:32.563Z,0.89
2023-01-21T04:28:13.013Z,0.91
2023-01-21T04:30:57.490Z,0.90
2023-01-21T04:33:30.801Z,0.93
2023-01-21T04:36:13.121Z,0.94
2023-01-21T04:38:53.854Z,1.04
2023-01-21T04:41:29.057Z,1.05
2023-01-21T04:44:07.884Z,1.01
2023-01-21T04:46:46.391Z,0.88
2023-01-21T04:49:22.108Z,0.97
2023-01-21T04:51:57.421Z,0.93
2023-01-21T04:54:38.355Z,0.95
2023-01-21T04:57:22.431Z,1.02
2023-01-21T05:00:00.822Z,1.03
2023-01-21T05:02:42.381Z,1.07
2023-01-21T05:05:19.937Z,0.89
2023-01-21T05:08:01.022Z,0.87
2023-01-21T05:10:45.043Z,0.87
2023-01-21T05:13:25.337Z,0.93
2023-01-21T05:16:08.192Z,0.85
2023-01-21T05:18:48.872Z,0.83
2023-01-21T05:21:26.933Z,1.10
2023-01-21T05:24:08.094Z,1.00
2023-01-21T05:26:49.890Z,1.06
2023-01-21T05:29:33.803Z,1.06
2023-01-21T05:32:11.331Z,0.77
2023-01-21T05:34:49.795Z,0.79
2023-01-21T05:37:25.417Z,0.85
2023-01-21T05:40:02.716Z,0.90
2023-01-21T05:42:43.890Z,1.01
2023-01-21T05:45:21.860Z,0.95
2023-01-21T05:47:56.387Z,1.01
2023-01-21T05:50:33.158Z,0.93
2023-01-21T05:53:13.884Z,0.78
2023-01-21T05:55:56.414Z,0.95
2023-01-21T05:58:34.189Z,0.97
2023-01-21T06:01:15.350Z,0.93
2023-01-21T06:03:57.972Z,0.91
2023-01-21T06:06:34.988Z,0.87
2023-01-21T06:09:15.041Z,0.91
2023-01-21T06:11:55.662Z,0.92
2023-01-21T06:14:31.002Z,0.98
2023-01-21T06:17:07.909Z,1.05
2023-01-21T06:19:48.744Z,0.86
2023-01-21T06:22:23.527Z,1.04
2023-01-21T06:25:01.052Z,0.86
2023-01-21T06:27:47.891Z,0.85
2023-01-21T06:30:25.878Z,0.87
2023-01-21T06:32:59.408Z,0.83
2023-01-21T06:35:38.898Z,0.89
2023-01-21T06:38:17.270Z,0.97
2023-01-21T06:40:49.956Z,1.01
2023-01-21T06:43:30.058Z,0.83
2023-01-21T06:46:11.588Z,0.82
2023-01-21T06:48:52.195Z,0.86
2023-01-21T06:51:27.292Z,0.83
2023-01-21T06:54:10.075Z,0.85
2023-01-21T06:56:50.686Z,0.91
2023-01-21T06:59:25.710Z,0.97
2023-01-21T07:02:01.452Z,0.97
2023-01-21T07:04:45.179Z,1.00
2023-01-21T07:07:20.875Z,1.01
2023-01-21T07:09:56.223Z,1.01
2023-01-21T07:12:31.903Z,1.02
2023-01-21T07:15:11.327Z,0.96
2023-01-21T07:17:46.615Z,1.03
2023-01-21T07:20:22.020Z,1.13
2023-01-21T07:23:04.404Z,1.21
2023-01-21T07:25:45.292Z,1.22
2023-01-21T07:28:25.310Z,1.25
2023-01-21T07:31:12.004Z,1.20
2023-01-21T07:33:53.641Z,1.26
2023-01-21T07:36:40.787Z,1.37
2023-01-21T07:39:23.412Z,1.20
2023-01-21T07:42:01.472Z,1.37
2023-01-21T07:44:35.993Z,1.34
2023-01-21T07:47:13.386Z,1.34
2023-01-21T07:49:46.334Z,1.38
2023-01-21T07:52:23.803Z,1.39
2023-01-21T07:55:01.956Z,1.38
2023-01-21T07:57:42.318Z,1.39
2023-01-21T08:00:17.319Z,1.43
2023-01-21T08:02:54.495Z,1.37
2023-01-21T08:05:30.845Z,1.43
2023-01-21T08:08:06.669Z,1.46
2023-01-21T08:10:57.362Z,1.47
2023-01-21T08:13:33.379Z,1.59
2023-01-21T08:16:13.709Z,1.49
2023-01-21T08:18:43.552Z,1.54
2023-01-21T08:21:21.111Z,1.46
2023-01-21T08:24:04.782Z,1.50
2023-01-21T08:26:46.122Z,1.56
2023-01-21T08:29:24.437Z,1.54
2023-01-21T08:32:03.767Z,1.56
2023-01-21T08:34:41.338Z,1.62
2023-01-21T08:37:14.060Z,1.66
2023-01-21T08:39:55.225Z,1.66
2023-01-21T08:42:32.290Z,1.72
2023-01-21T08:45:15.181Z,1.78
2023-01-21T08:47:53.416Z,1.76
2023-01-21T08:50:29.194Z,1.81
2023-01-21T08:53:12.294Z,1.83
2023-01-21T08:55:48.622Z,1.76
2023-01-21T08:58:32.874Z,1.73
2023-01-21T09:01:15.511Z,1.72
2023-01-21T09:03:46.389Z,1.81
2023-01-21T09:06:25.742Z,1.52
2023-01-21T09:09:03.234Z,1.58
2023-01-21T09:11:47.457Z,1.66
2023-01-21T09:14:25.423Z,1.70
2023-01-21T09:17:03.355Z,1.71
2023-01-21T09:19:42.381Z,1.69
2023-01-21T09:22:16.874Z,1.74
2023-01-21T09:24:52.967Z,1.89
2023-01-21T09:27:27.747Z,1.94
2023-01-21T09:30:09.007Z,2.11
2023-01-21T09:32:44.853Z,2.04
2023-01-21T09:35:17.812Z,1.99
2023-01-21T09:37:53.154Z,2.01
2023-01-21T09:40:31.683Z,2.07
2023-01-21T09:43:11.607Z,2.12
2023-01-21T09:45:47.005Z,2.01
2023-01-21T09:48:38.839Z,2.00
2023-01-21T09:51:31.665Z,1.97
2023-01-21T09:54:13.536Z,1.76
2023-01-21T09:57:02.360Z,1.71
2023-01-21T09:59:55.991Z,1.76
2023-01-21T10:03:04.736Z,1.84
2023-01-21T10:06:00.702Z,1.93
2023-01-21T10:08:48.554Z,1.89
2023-01-21T10:11:59.149Z,1.86
2023-01-21T10:14:46.433Z,1.87
2023-01-21T10:17:47.621Z,1.79
2023-01-21T10:20:31.791Z,1.92
2023-01-21T10:23:31.104Z,1.99
2023-01-21T10:26:12.617Z,1.91
2023-01-21T10:28:58.121Z,1.97
2023-01-21T10:31:54.886Z,1.90
2023-01-21T10:34:50.922Z,1.94
2023-01-21T10:37:47.782Z,2.00
2023-01-21T10:40:56.829Z,2.15
2023-01-21T10:44:01.777Z,2.09
2023-01-21T10:47:01.067Z,2.05
2023-01-21T10:49:58.614Z,2.01
2023-01-21T10:52:46.392Z,2.04
2023-01-21T10:55:34.724Z,2.12
2023-01-21T10:58:30.024Z,2.10
2023-01-21T11:01:08.030Z,2.20
2023-01-21T11:03:50.547Z,2.20
2023-01-21T11:06:32.538Z,2.12
2023-01-21T11:09:17.086Z,2.25
2023-01-21T11:11:54.902Z,2.13
2023-01-21T11:14:39.825Z,2.26
2023-01-21T11:17:31.815Z,2.19
2023-01-21T11:20:07.977Z,2.15
2023-01-21T11:22:52.113Z,2.23
2023-01-21T11:25:41.545Z,2.29
2023-01-21T11:28:30.666Z,2.41
2023-01-21T11:31:23.603Z,2.30
2023-01-21T11:34:09.723Z,2.42
2023-01-21T11:37:00.179Z,2.42
2023-01-21T11:39:48.413Z,2.39
2023-01-21T11:42:26.779Z,2.45
2023-01-21T11:45:06.272Z,2.31
2023-01-21T11:47:55.372Z,2.32
2023-01-21T11:50:39.079Z,2.36
2023-01-21T11:53:23.230Z,2.42
2023-01-21T11:56:05.800Z,2.51
2023-01-21T11:58:49.373Z,2.38
2023-01-21T12:01:27.863Z,2.52
2023-01-21T12:04:06.746Z,2.51
2023-01-21T12:06:47.607Z,2.26
2023-01-21T12:09:24.609Z,2.49
2023-01-21T12:12:31.993Z,2.46
2023-01-21T12:15:25.779Z,2.49
2023-01-21T12:18:36.261Z,2.51
2023-01-21T12:21:16.568Z,2.51
2023-01-21T12:24:00.912Z,2.70
2023-01-21T12:26:42.187Z,2.67
2023-01-21T12:29:55.238Z,2.77
2023-01-21T12:32:51.527Z,2.75
2023-01-21T12:35:47.527Z,2.70
2023-01-21T12:38:41.111Z,2.60
2023-01-21T12:41:30.936Z,2.56
2023-01-21T12:44:21.836Z,2.63
2023-01-21T12:46:59.313Z,2.65
2023-01-21T12:49:58.852Z,2.78
2023-01-21T12:53:09.587Z,2.68
2023-01-21T12:55:47.915Z,2.66
2023-01-21T12:58:24.302Z,2.62
2023-01-21T13:01:01.086Z,2.54
2023-01-21T13:04:04.893Z,2.61
2023-01-21T13:06:54.710Z,2.51
2023-01-21T13:10:07.139Z,2.60
2023-01-21T13:12:43.566Z,2.66
2023-01-21T13:15:46.002Z,2.67
2023-01-21T13:18:47.748Z,2.75
2023-01-21T13:21:42.827Z,2.71
2023-01-21T13:24:59.890Z,2.71
2023-01-21T13:27:44.493Z,2.68
2023-01-21T13:30:41.902Z,2.72
2023-01-21T13:33:30.599Z,2.59
2023-01-21T13:36:30.261Z,2.52
2023-01-21T13:39:44.318Z,2.36
2023-01-21T13:43:12.121Z,2.42
2023-01-21T13:46:20.417Z,2.39
2023-01-21T13:49:24.989Z,2.32
2023-01-21T13:52:12.923Z,2.34
2023-01-21T13:55:14.927Z,2.29
2023-01-21T13:57:54.484Z,2.25
2023-01-21T14:00:36.777Z,2.14
2023-01-21T14:03:30.743Z,1.97
2023-01-21T14:06:16.011Z,2.01
2023-01-21T14:08:58.247Z,2.04
2023-01-21T14:11:44.226Z,2.11
2023-01-21T14:14:49.563Z,2.14
2023-01-21T14:18:08.833Z,2.09
2023-01-21T14:21:13.458Z,2.08
2023-01-21T14:24:03.387Z,2.07
2023-01-21T14:26:48.599Z,2.09
2023-01-21T14:29:45.235Z,2.03
2023-01-21T14:32:42.584Z,2.10
2023-01-21T14:35:39.313Z,2.12
2023-01-21T14:38:41.620Z,2.01
2023-01-21T14:41:12.331Z,2.11
2023-01-21T14:43:54.938Z,2.06
2023-01-21T14:46:39.209Z,2.01
2023-01-21T14:49:33.330Z,1.94
2023-01-21T14:52:03.670Z,1.95
2023-01-21T14:54:48.038Z,1.95
2023-01-21T14:57:37.094Z,1.88
2023-01-21T15:00:26.864Z,1.99
2023-01-21T15:03:27.194Z,1.93
2023-01-21T15:06:13.833Z,1.96
2023-01-21T15:08:57.947Z,1.95
2023-01-21T15:11:49.489Z,1.91
2023-01-21T15:14:34.592Z,1.80
2023-01-21T15:17:51.941Z,1.78
2023-01-21T15:21:02.453Z,1.74
2023-01-21T15:23:35.142Z,1.79
2023-01-21T15:26:24.705Z,1.83
2023-01-21T15:29:19.773Z,1.72
2023-01-21T15:32:01.186Z,1.70
2023-01-21T15:34:42.695Z,1.76
2023-01-21T15:37:22.392Z,1.67
2023-01-21T15:40:01.645Z,1.64
2023-01-21T15:42:58.171Z,1.61
2023-01-21T15:45:57.551Z,1.61
2023-01-21T15:48:43.954Z,1.46
2023-01-21T15:51:41.010Z,1.54
2023-01-21T15:54:45.555Z,1.62
2023-01-21T15:57:50.000Z,1.52
2023-01-21T16:00:40.972Z,1.41
2023-01-21T16:03:22.900Z,1.51
2023-01-21T16:06:25.355Z,1.62
2023-01-21T16:09:22.572Z,1.59
2023-01-21T16:12:24.526Z,1.58
2023-01-21T16:15:46.456Z,1.53
2023-01-21T16:18:32.169Z,1.59
2023-01-21T16:21:07.531Z,1.56
2023-01-21T16:23:49.501Z,1.60
2023-01-21T16:26:37.705Z,1.59
2023-01-21T16:29:27.659Z,1.62
2023-01-21T16:32:00.792Z,1.78
2023-01-21T16:34:51.579Z,1.59
2023-01-21T16:37:28.329Z,1.64
2023-01-21T16:40:28.333Z,1.46
2023-01-21T16:43:36.560Z,1.45
2023-01-21T16:46:14.890Z,1.54
2023-01-21T16:48:57.394Z,1.59
2023-01-21T16:51:39.297Z,1.52
2023-01-21T16:54:52.779Z,1.43
2023-01-21T16:57:37.710Z,1.44
2023-01-21T17:00:22.839Z,1.32
2023-01-21T17:03:00.373Z,1.33
2023-01-21T17:05:46.122Z,1.45
2023-01-21T17:08:28.137Z,1.40
2023-01-21T17:11:05.267Z,1.39
2023-01-21T17:13:47.640Z,1.35
2023-01-21T17:16:39.840Z,1.47
2023-01-21T17:19:30.321Z,1.45
2023-01-21T17:22:10.155Z,1.44
2023-01-21T17:25:11.240Z,1.42
2023-01-21T17:27:47.531Z,1.54
2023-01-21T17:30:35.313Z,1.51
2023-01-21T17:33:27.535Z,1.61
2023-01-21T17:36:32.411Z,1.51
2023-01-21T17:39:11.522Z,1.51
2023-01-21T17:41:53.183Z,1.54
2023-01-21T17:44:35.009Z,1.39
2023-01-21T17:47:10.808Z,1.44
2023-01-21T17:50:11.391Z,1.36
2023-01-21T17:53:02.352Z,1.39
2023-01-21T17:55:57.853Z,1.43
2023-01-21T17:58:50.349Z,1.54
2023-01-21T18:01:32.063Z,1.50
2023-01-21T18:04:04.314Z,1.44
2023-01-21T18:06:41.933Z,1.54
2023-01-21T18:09:24.981Z,1.49
2023-01-21T18:12:01.369Z,1.54
2023-01-21T18:14:42.135Z,1.54
2023-01-21T18:17:23.623Z,1.53
2023-01-21T18:20:04.534Z,1.63
2023-01-21T18:22:46.751Z,1.57
2023-01-21T18:25:26.958Z,1.55
2023-01-21T18:28:11.335Z,1.52
2023-01-21T18:30:55.052Z,1.62
2023-01-21T18:33:31.663Z,1.54
2023-01-21T18:36:12.368Z,1.69
2023-01-21T18:38:47.916Z,1.64
2023-01-21T18:41:27.436Z,1.57
2023-01-21T18:44:13.781Z,1.64
2023-01-21T18:46:59.971Z,1.65
2023-01-21T18:49:51.598Z,1.76
2023-01-21T18:52:29.933Z,1.67
2023-01-21T18:55:10.704Z,1.70
2023-01-21T18:57:57.129Z,1.52
2023-01-21T19:00:38.063Z,1.53
2023-01-21T19:03:22.878Z,1.64
2023-01-21T19:06:16.861Z,1.68
2023-01-21T19:08:59.650Z,1.49
2023-01-21T19:11:44.314Z,1.48
2023-01-21T19:14:19.877Z,1.43
2023-01-21T19:17:01.176Z,1.44
2023-01-21T19:19:37.354Z,1.33
2023-01-21T19:22:12.358Z,1.38
2023-01-21T19:24:57.693Z,1.52
2023-01-21T19:27:48.204Z,1.50
2023-01-21T19:30:29.300Z,1.42
2023-01-21T19:33:09.755Z,1.32
2023-01-21T19:35:54.240Z,1.43
2023-01-21T19:38:33.012Z,1.40
2023-01-21T19:41:12.590Z,1.46
2023-01-21T19:44:02.799Z,1.47
2023-01-21T19:46:41.907Z,1.50
2023-01-21T19:49:26.213Z,1.43
2023-01-21T19:52:06.563Z,1.55
2023-01-21T19:54:44.126Z,1.62
2023-01-21T19:57:29.298Z,1.52
2023-01-21T20:00:07.250Z,1.52
2023-01-21T20:02:46.828Z,1.46
2023-01-21T20:05:29.163Z,1.47
2023-01-21T20:08:11.820Z,1.49
2023-01-21T20:10:50.143Z,1.57
2023-01-21T20:13:28.363Z,1.38
2023-01-21T20:16:16.071Z,1.49
2023-01-21T20:18:54.253Z,1.44
2023-01-21T20:21:40.143Z,1.36
2023-01-21T20:24:32.907Z,1.41
2023-01-21T20:27:20.119Z,1.47
2023-01-21T20:30:15.640Z,1.55
2023-01-21T20:33:01.491Z,1.57
2023-01-21T20:35:50.345Z,1.59
2023-01-21T20:38:30.395Z,1.51
2023-01-21T20:41:14.807Z,1.62
2023-01-21T20:43:52.173Z,1.61
2023-01-21T20:46:39.859Z,1.56
2023-01-21T20:49:23.794Z,1.54
2023-01-21T20:52:02.416Z,1.62
2023-01-21T20:54:43.483Z,1.59
2023-01-21T20:57:27.675Z,1.56
2023-01-21T21:00:15.734Z,1.63
2023-01-21T21:02:58.848Z,1.76
2023-01-21T21:05:37.414Z,1.73
2023-01-21T21:08:20.394Z,1.72
2023-01-21T21:11:06.611Z,1.77
2023-01-21T21:13:47.098Z,1.79
2023-01-21T21:16:31.950Z,1.72
2023-01-21T21:19:11.777Z,1.62
2023-01-21T21:21:55.489Z,1.84
2023-01-21T21:24:29.984Z,1.89
2023-01-21T21:27:18.205Z,1.88
2023-01-21T21:30:05.331Z,1.87
2023-01-21T21:32:42.535Z,2.00
2023-01-21T21:35:42.086Z,1.86
2023-01-21T21:38:32.289Z,1.76
2023-01-21T21:41:26.954Z,1.81
2023-01-21T21:44:02.125Z,1.78
2023-01-21T21:46:56.316Z,1.82
2023-01-21T21:49:43.289Z,1.78
2023-01-21T21:52:26.811Z,1.70
2023-01-21T21:55:14.643Z,1.62
2023-01-21T21:57:52.668Z,1.71
2023-01-21T22:00:31.218Z,1.70
2023-01-21T22:03:14.954Z,1.69
2023-01-21T22:06:01.809Z,1.73
2023-01-21T22:08:43.671Z,1.74
2023-01-21T22:11:25.230Z,1.71
2023-01-21T22:14:08.192Z,1.65
2023-01-21T22:16:49.940Z,1.66
2023-01-21T22:19:30.057Z,1.62
2023-01-21T22:22:11.617Z,1.55
2023-01-21T22:24:50.404Z,1.63
2023-01-21T22:27:32.066Z,1.73
2023-01-21T22:30:09.544Z,1.72
2023-01-21T22:32:50.440Z,1.80
2023-01-21T22:35:28.632Z,1.88
2023-01-21T22:38:10.113Z,1.95
2023-01-21T22:40:48.727Z,1.91
2023-01-21T22:43:27.283Z,1.88
2023-01-21T22:46:12.189Z,1.76
2023-01-21T22:48:50.739Z,1.73
2023-01-21T22:51:32.341Z,1.81
2023-01-21T22:54:13.509Z,1.85
2023-01-21T22:56:55.411Z,1.98
2023-01-21T22:59:32.052Z,1.85
2023-01-21T23:02:18.582Z,1.84
2023-01-21T23:04:55.354Z,1.76
2023-01-21T23:07:36.992Z,1.79
2023-01-21T23:10:22.890Z,1.78
2023-01-21T23:13:00.947Z,1.71
2023-01-21T23:15:39.624Z,1.69
2023-01-21T23:18:25.225Z,1.66
2023-01-21T23:21:18.743Z,1.77
2023-01-21T23:23:54.109Z,1.80
2023-01-21T23:26:31.768Z,1.71
2023-01-21T23:29:27.390Z,1.67
2023-01-21T23:32:11.280Z,1.77
2023-01-21T23:34:52.017Z,1.71
2023-01-21T23:37:29.098Z,1.75
2023-01-21T23:40:07.256Z,1.71
2023-01-21T23:42:49.663Z,1.75
2023-01-21T23:45:27.767Z,1.72
2023-01-21T23:48:05.843Z,1.86
2023-01-21T23:50:46.923Z,1.88
2023-01-21T23:53:24.569Z,1.92
2023-01-21T23:56:15.556Z,1.85
2023-01-21T23:58:54.164Z,2.04
